sensor_id;sensor_type;location;lat;lon;timestamp;P1;durP1;ratioP1;P2;durP2;ratioP2
29570;SDS011;16814;52.118;11.436;2023-03-23T00:01:03;2.63;;;1.40;;
29570;SDS011;16814;52.118;11.436;2023-03-23T00:03:30;3.05;;;1.40;;
29570;SDS011;16814;52.118;11.436;2023-03-23T00:05:57;4.45;;;1.55;;
29570;SDS011;16814;52.118;11.436;2023-03-23T00:08:31;3.33;;;1.40;;
29570;SDS011;16814;52.118;11.436;2023-03-23T00:10:58;3.40;;;1.50;;
29570;SDS011;16814;52.118;11.436;2023-03-23T00:13:26;4.55;;;1.40;;
29570;SDS011;16814;52.118;11.436;2023-03-23T00:15:53;2.70;;;1.20;;
29570;SDS011;16814;52.118;11.436;2023-03-23T00:18:19;1.77;;;1.10;;
29570;SDS011;16814;52.118;11.436;2023-03-23T00:20:51;1.65;;;1.10;;
29570;SDS011;16814;52.118;11.436;2023-03-23T00:23:19;3.50;;;1.25;;
29570;SDS011;16814;52.118;11.436;2023-03-23T00:25:48;2.70;;;1.30;;
29570;SDS011;16814;52.118;11.436;2023-03-23T00:28:15;3.28;;;1.20;;
29570;SDS011;16814;52.118;11.436;2023-03-23T00:30:41;4.13;;;1.63;;
29570;SDS011;16814;52.118;11.436;2023-03-23T00:33:09;3.42;;;1.27;;
29570;SDS011;16814;52.118;11.436;2023-03-23T00:35:37;3.83;;;1.48;;
29570;SDS011;16814;52.118;11.436;2023-03-23T00:38:03;5.17;;;1.20;;
29570;SDS011;16814;52.118;11.436;2023-03-23T00:40:29;2.75;;;1.42;;
29570;SDS011;16814;52.118;11.436;2023-03-23T00:42:55;5.88;;;1.55;;
29570;SDS011;16814;52.118;11.436;2023-03-23T00:45:21;2.08;;;1.30;;
29570;SDS011;16814;52.118;11.436;2023-03-23T00:47:48;2.63;;;1.10;;
29570;SDS011;16814;52.118;11.436;2023-03-23T00:50:16;3.85;;;1.38;;
29570;SDS011;16814;52.118;11.436;2023-03-23T00:52:42;3.53;;;1.50;;
29570;SDS011;16814;52.118;11.436;2023-03-23T00:55:08;2.80;;;1.40;;
29570;SDS011;16814;52.118;11.436;2023-03-23T00:57:34;3.42;;;1.30;;
29570;SDS011;16814;52.118;11.436;2023-03-23T01:00:00;4.03;;;1.40;;
29570;SDS011;16814;52.118;11.436;2023-03-23T01:02:25;3.53;;;1.13;;
29570;SDS011;16814;52.118;11.436;2023-03-23T01:04:52;2.83;;;1.13;;
29570;SDS011;16814;52.118;11.436;2023-03-23T01:07:21;1.80;;;1.10;;
29570;SDS011;16814;52.118;11.436;2023-03-23T01:09:48;2.75;;;1.10;;
29570;SDS011;16814;52.118;11.436;2023-03-23T01:12:14;2.63;;;1.10;;
29570;SDS011;16814;52.118;11.436;2023-03-23T01:14:40;3.95;;;1.45;;
29570;SDS011;16814;52.118;11.436;2023-03-23T01:17:06;4.50;;;1.23;;
29570;SDS011;16814;52.118;11.436;2023-03-23T01:19:32;3.55;;;1.30;;
29570;SDS011;16814;52.118;11.436;2023-03-23T01:21:57;2.80;;;1.30;;
29570;SDS011;16814;52.118;11.436;2023-03-23T01:24:23;2.92;;;1.30;;
29570;SDS011;16814;52.118;11.436;2023-03-23T01:26:48;3.57;;;1.33;;
29570;SDS011;16814;52.118;11.436;2023-03-23T01:29:14;2.03;;;1.23;;
29570;SDS011;16814;52.118;11.436;2023-03-23T01:31:40;3.45;;;1.20;;
29570;SDS011;16814;52.118;11.436;2023-03-23T01:34:07;4.63;;;1.47;;
29570;SDS011;16814;52.118;11.436;2023-03-23T01:36:33;3.85;;;1.30;;
29570;SDS011;16814;52.118;11.436;2023-03-23T01:39:02;5.45;;;1.35;;
29570;SDS011;16814;52.118;11.436;2023-03-23T01:41:30;2.85;;;1.45;;
29570;SDS011;16814;52.118;11.436;2023-03-23T01:44:01;3.47;;;1.45;;
29570;SDS011;16814;52.118;11.436;2023-03-23T01:46:35;2.95;;;1.08;;
29570;SDS011;16814;52.118;11.436;2023-03-23T01:49:07;5.30;;;1.40;;
29570;SDS011;16814;52.118;11.436;2023-03-23T01:51:39;4.88;;;1.52;;
29570;SDS011;16814;52.118;11.436;2023-03-23T01:54:09;6.10;;;1.63;;
29570;SDS011;16814;52.118;11.436;2023-03-23T01:56:43;3.08;;;1.48;;
29570;SDS011;16814;52.118;11.436;2023-03-23T01:59:12;3.97;;;1.55;;
29570;SDS011;16814;52.118;11.436;2023-03-23T02:01:38;4.30;;;1.50;;
29570;SDS011;16814;52.118;11.436;2023-03-23T02:04:09;3.63;;;1.50;;
29570;SDS011;16814;52.118;11.436;2023-03-23T02:06:36;4.30;;;1.40;;
29570;SDS011;16814;52.118;11.436;2023-03-23T02:09:02;2.92;;;1.30;;
29570;SDS011;16814;52.118;11.436;2023-03-23T02:11:31;2.92;;;1.30;;
29570;SDS011;16814;52.118;11.436;2023-03-23T02:13:56;3.83;;;1.60;;
29570;SDS011;16814;52.118;11.436;2023-03-23T02:24:30;4.03;;;1.70;;
29570;SDS011;16814;52.118;11.436;2023-03-23T02:27:04;4.93;;;1.60;;
29570;SDS011;16814;52.118;11.436;2023-03-23T02:35:12;4.53;;;1.63;;
29570;SDS011;16814;52.118;11.436;2023-03-23T02:37:46;3.90;;;1.60;;
29570;SDS011;16814;52.118;11.436;2023-03-23T02:40:27;3.53;;;1.60;;
29570;SDS011;16814;52.118;11.436;2023-03-23T02:42:57;4.13;;;1.42;;
29570;SDS011;16814;52.118;11.436;2023-03-23T02:45:23;4.95;;;1.70;;
29570;SDS011;16814;52.118;11.436;2023-03-23T02:47:53;3.42;;;1.50;;
29570;SDS011;16814;52.118;11.436;2023-03-23T02:50:21;3.60;;;1.60;;
29570;SDS011;16814;52.118;11.436;2023-03-23T02:52:49;2.88;;;1.50;;
29570;SDS011;16814;52.118;11.436;2023-03-23T02:55:18;4.90;;;1.52;;
29570;SDS011;16814;52.118;11.436;2023-03-23T02:57:44;5.32;;;1.95;;
29570;SDS011;16814;52.118;11.436;2023-03-23T03:00:12;4.50;;;1.50;;
29570;SDS011;16814;52.118;11.436;2023-03-23T03:02:41;4.43;;;1.48;;
29570;SDS011;16814;52.118;11.436;2023-03-23T03:05:13;3.47;;;1.50;;
29570;SDS011;16814;52.118;11.436;2023-03-23T03:07:50;3.25;;;1.65;;
29570;SDS011;16814;52.118;11.436;2023-03-23T03:16:27;4.25;;;1.63;;
29570;SDS011;16814;52.118;11.436;2023-03-23T03:18:59;3.13;;;1.58;;
29570;SDS011;16814;52.118;11.436;2023-03-23T03:21:38;3.63;;;1.53;;
29570;SDS011;16814;52.118;11.436;2023-03-23T03:24:07;4.65;;;1.67;;
29570;SDS011;16814;52.118;11.436;2023-03-23T03:26:36;4.18;;;1.75;;
29570;SDS011;16814;52.118;11.436;2023-03-23T03:29:04;6.75;;;1.80;;
29570;SDS011;16814;52.118;11.436;2023-03-23T03:31:33;5.72;;;1.50;;
29570;SDS011;16814;52.118;11.436;2023-03-23T03:34:03;3.28;;;1.80;;
29570;SDS011;16814;52.118;11.436;2023-03-23T03:36:30;4.90;;;1.60;;
29570;SDS011;16814;52.118;11.436;2023-03-23T03:39:00;5.05;;;1.70;;
29570;SDS011;16814;52.118;11.436;2023-03-23T03:41:32;3.75;;;1.55;;
29570;SDS011;16814;52.118;11.436;2023-03-23T03:44:02;2.92;;;1.67;;
29570;SDS011;16814;52.118;11.436;2023-03-23T03:46:29;3.85;;;1.48;;
29570;SDS011;16814;52.118;11.436;2023-03-23T03:48:56;4.20;;;1.63;;
29570;SDS011;16814;52.118;11.436;2023-03-23T03:51:22;3.70;;;1.58;;
29570;SDS011;16814;52.118;11.436;2023-03-23T03:53:49;6.85;;;1.85;;
29570;SDS011;16814;52.118;11.436;2023-03-23T03:56:14;4.95;;;1.60;;
29570;SDS011;16814;52.118;11.436;2023-03-23T03:58:41;5.53;;;1.87;;
29570;SDS011;16814;52.118;11.436;2023-03-23T04:01:07;3.33;;;1.50;;
29570;SDS011;16814;52.118;11.436;2023-03-23T04:03:35;3.28;;;1.48;;
29570;SDS011;16814;52.118;11.436;2023-03-23T04:06:01;5.73;;;1.57;;
29570;SDS011;16814;52.118;11.436;2023-03-23T04:08:27;4.60;;;1.60;;
29570;SDS011;16814;52.118;11.436;2023-03-23T04:10:53;3.80;;;1.55;;
29570;SDS011;16814;52.118;11.436;2023-03-23T04:13:19;4.37;;;1.50;;
29570;SDS011;16814;52.118;11.436;2023-03-23T04:15:46;5.50;;;1.75;;
29570;SDS011;16814;52.118;11.436;2023-03-23T04:18:12;5.63;;;1.50;;
29570;SDS011;16814;52.118;11.436;2023-03-23T04:20:40;5.10;;;1.77;;
29570;SDS011;16814;52.118;11.436;2023-03-23T04:23:06;4.22;;;1.77;;
29570;SDS011;16814;52.118;11.436;2023-03-23T04:25:32;3.35;;;1.80;;
29570;SDS011;16814;52.118;11.436;2023-03-23T04:27:58;3.43;;;1.70;;
29570;SDS011;16814;52.118;11.436;2023-03-23T04:30:26;3.00;;;1.40;;
29570;SDS011;16814;52.118;11.436;2023-03-23T04:32:53;4.37;;;1.77;;
29570;SDS011;16814;52.118;11.436;2023-03-23T04:35:23;3.55;;;1.77;;
29570;SDS011;16814;52.118;11.436;2023-03-23T04:37:53;5.13;;;1.70;;
29570;SDS011;16814;52.118;11.436;2023-03-23T04:40:18;4.85;;;1.50;;
29570;SDS011;16814;52.118;11.436;2023-03-23T04:42:45;2.65;;;1.55;;
29570;SDS011;16814;52.118;11.436;2023-03-23T04:45:12;4.60;;;1.75;;
29570;SDS011;16814;52.118;11.436;2023-03-23T04:47:40;7.97;;;2.13;;
29570;SDS011;16814;52.118;11.436;2023-03-23T04:50:07;5.80;;;1.80;;
29570;SDS011;16814;52.118;11.436;2023-03-23T04:52:34;4.78;;;1.98;;
29570;SDS011;16814;52.118;11.436;2023-03-23T04:55:02;4.22;;;1.60;;
29570;SDS011;16814;52.118;11.436;2023-03-23T04:57:32;4.70;;;1.90;;
29570;SDS011;16814;52.118;11.436;2023-03-23T04:59:59;3.88;;;1.85;;
29570;SDS011;16814;52.118;11.436;2023-03-23T05:02:25;3.90;;;1.60;;
29570;SDS011;16814;52.118;11.436;2023-03-23T05:04:55;5.40;;;2.00;;
29570;SDS011;16814;52.118;11.436;2023-03-23T05:07:21;5.80;;;1.90;;
29570;SDS011;16814;52.118;11.436;2023-03-23T05:09:48;5.50;;;1.90;;
29570;SDS011;16814;52.118;11.436;2023-03-23T05:12:14;3.97;;;1.80;;
29570;SDS011;16814;52.118;11.436;2023-03-23T05:14:40;4.75;;;1.70;;
29570;SDS011;16814;52.118;11.436;2023-03-23T05:17:06;4.63;;;1.90;;
29570;SDS011;16814;52.118;11.436;2023-03-23T05:19:32;3.03;;;1.48;;
29570;SDS011;16814;52.118;11.436;2023-03-23T05:21:58;4.33;;;1.60;;
29570;SDS011;16814;52.118;11.436;2023-03-23T05:24:30;4.55;;;1.80;;
29570;SDS011;16814;52.118;11.436;2023-03-23T05:26:57;5.28;;;2.10;;
29570;SDS011;16814;52.118;11.436;2023-03-23T05:29:24;5.88;;;1.80;;
29570;SDS011;16814;52.118;11.436;2023-03-23T05:31:50;6.05;;;2.00;;
29570;SDS011;16814;52.118;11.436;2023-03-23T05:34:17;4.00;;;1.70;;
29570;SDS011;16814;52.118;11.436;2023-03-23T05:36:43;4.23;;;1.87;;
29570;SDS011;16814;52.118;11.436;2023-03-23T05:39:10;3.80;;;1.70;;
29570;SDS011;16814;52.118;11.436;2023-03-23T05:41:36;6.13;;;2.00;;
29570;SDS011;16814;52.118;11.436;2023-03-23T05:44:02;3.83;;;1.83;;
29570;SDS011;16814;52.118;11.436;2023-03-23T05:46:28;4.67;;;1.83;;
29570;SDS011;16814;52.118;11.436;2023-03-23T05:48:54;12.27;;;2.60;;
29570;SDS011;16814;52.118;11.436;2023-03-23T05:51:19;5.43;;;2.20;;
29570;SDS011;16814;52.118;11.436;2023-03-23T05:53:45;5.53;;;2.10;;
29570;SDS011;16814;52.118;11.436;2023-03-23T05:56:12;5.68;;;1.83;;
29570;SDS011;16814;52.118;11.436;2023-03-23T05:58:38;6.38;;;1.70;;
29570;SDS011;16814;52.118;11.436;2023-03-23T06:01:06;3.60;;;1.60;;
29570;SDS011;16814;52.118;11.436;2023-03-23T06:03:32;6.03;;;1.95;;
29570;SDS011;16814;52.118;11.436;2023-03-23T06:06:00;3.03;;;1.60;;
29570;SDS011;16814;52.118;11.436;2023-03-23T06:08:28;3.33;;;1.60;;
29570;SDS011;16814;52.118;11.436;2023-03-23T06:10:53;3.87;;;1.97;;
29570;SDS011;16814;52.118;11.436;2023-03-23T06:13:20;4.25;;;1.70;;
29570;SDS011;16814;52.118;11.436;2023-03-23T06:15:46;6.00;;;1.95;;
29570;SDS011;16814;52.118;11.436;2023-03-23T06:18:12;7.10;;;1.98;;
29570;SDS011;16814;52.118;11.436;2023-03-23T06:20:38;5.47;;;2.00;;
29570;SDS011;16814;52.118;11.436;2023-03-23T06:23:05;4.22;;;2.00;;
29570;SDS011;16814;52.118;11.436;2023-03-23T06:25:31;5.20;;;2.15;;
29570;SDS011;16814;52.118;11.436;2023-03-23T06:27:57;4.10;;;1.73;;
29570;SDS011;16814;52.118;11.436;2023-03-23T06:30:23;5.33;;;1.80;;
29570;SDS011;16814;52.118;11.436;2023-03-23T06:32:50;3.03;;;1.90;;
29570;SDS011;16814;52.118;11.436;2023-03-23T06:35:16;5.40;;;2.15;;
29570;SDS011;16814;52.118;11.436;2023-03-23T06:37:41;4.33;;;1.80;;
29570;SDS011;16814;52.118;11.436;2023-03-23T06:40:07;3.47;;;1.80;;
29570;SDS011;16814;52.118;11.436;2023-03-23T06:42:34;2.83;;;1.50;;
29570;SDS011;16814;52.118;11.436;2023-03-23T06:45:00;5.60;;;1.80;;
29570;SDS011;16814;52.118;11.436;2023-03-23T06:47:27;3.28;;;1.80;;
29570;SDS011;16814;52.118;11.436;2023-03-23T06:49:56;3.50;;;1.80;;
29570;SDS011;16814;52.118;11.436;2023-03-23T06:52:23;3.42;;;1.70;;
29570;SDS011;16814;52.118;11.436;2023-03-23T06:54:49;2.55;;;1.52;;
29570;SDS011;16814;52.118;11.436;2023-03-23T06:57:16;4.40;;;1.70;;
29570;SDS011;16814;52.118;11.436;2023-03-23T06:59:42;3.47;;;1.73;;
29570;SDS011;16814;52.118;11.436;2023-03-23T07:02:09;3.97;;;1.40;;
29570;SDS011;16814;52.118;11.436;2023-03-23T07:04:36;3.95;;;1.60;;
29570;SDS011;16814;52.118;11.436;2023-03-23T07:07:03;3.67;;;1.30;;
29570;SDS011;16814;52.118;11.436;2023-03-23T07:09:30;2.83;;;1.50;;
29570;SDS011;16814;52.118;11.436;2023-03-23T07:11:55;2.55;;;1.40;;
29570;SDS011;16814;52.118;11.436;2023-03-23T07:14:21;4.13;;;1.53;;
29570;SDS011;16814;52.118;11.436;2023-03-23T07:16:47;2.55;;;1.42;;
29570;SDS011;16814;52.118;11.436;2023-03-23T07:19:13;2.88;;;1.27;;
29570;SDS011;16814;52.118;11.436;2023-03-23T07:21:39;2.95;;;1.42;;
29570;SDS011;16814;52.118;11.436;2023-03-23T07:24:05;3.53;;;1.50;;
29570;SDS011;16814;52.118;11.436;2023-03-23T07:26:31;2.75;;;1.50;;
29570;SDS011;16814;52.118;11.436;2023-03-23T07:28:56;1.63;;;1.20;;
29570;SDS011;16814;52.118;11.436;2023-03-23T07:31:22;2.05;;;1.25;;
29570;SDS011;16814;52.118;11.436;2023-03-23T07:33:47;2.00;;;1.17;;
29570;SDS011;16814;52.118;11.436;2023-03-23T07:36:13;5.07;;;1.27;;
29570;SDS011;16814;52.118;11.436;2023-03-23T07:38:38;4.57;;;1.53;;
29570;SDS011;16814;52.118;11.436;2023-03-23T07:41:05;2.83;;;1.43;;
29570;SDS011;16814;52.118;11.436;2023-03-23T07:43:31;10.27;;;1.60;;
29570;SDS011;16814;52.118;11.436;2023-03-23T07:45:57;2.50;;;1.23;;
29570;SDS011;16814;52.118;11.436;2023-03-23T07:48:22;2.38;;;1.17;;
29570;SDS011;16814;52.118;11.436;2023-03-23T07:50:48;1.80;;;1.03;;
29570;SDS011;16814;52.118;11.436;2023-03-23T07:53:14;4.22;;;1.40;;
29570;SDS011;16814;52.118;11.436;2023-03-23T07:55:40;3.63;;;1.63;;
29570;SDS011;16814;52.118;11.436;2023-03-23T07:58:05;3.42;;;1.20;;
29570;SDS011;16814;52.118;11.436;2023-03-23T08:00:32;2.70;;;1.33;;
29570;SDS011;16814;52.118;11.436;2023-03-23T08:02:57;2.55;;;1.40;;
29570;SDS011;16814;52.118;11.436;2023-03-23T08:05:24;2.72;;;1.40;;
29570;SDS011;16814;52.118;11.436;2023-03-23T08:07:51;2.83;;;1.50;;
29570;SDS011;16814;52.118;11.436;2023-03-23T08:10:19;2.10;;;1.30;;
29570;SDS011;16814;52.118;11.436;2023-03-23T08:12:52;1.80;;;1.20;;
29570;SDS011;16814;52.118;11.436;2023-03-23T08:15:20;2.25;;;1.42;;
29570;SDS011;16814;52.118;11.436;2023-03-23T08:17:47;3.07;;;1.50;;
29570;SDS011;16814;52.118;11.436;2023-03-23T08:20:13;4.93;;;1.60;;
29570;SDS011;16814;52.118;11.436;2023-03-23T08:22:40;3.83;;;1.48;;
29570;SDS011;16814;52.118;11.436;2023-03-23T08:25:08;1.80;;;1.30;;
29570;SDS011;16814;52.118;11.436;2023-03-23T08:27:37;2.47;;;1.20;;
29570;SDS011;16814;52.118;11.436;2023-03-23T08:30:08;3.38;;;1.63;;
29570;SDS011;16814;52.118;11.436;2023-03-23T08:32:38;2.92;;;1.60;;
29570;SDS011;16814;52.118;11.436;2023-03-23T08:35:05;2.05;;;1.50;;
29570;SDS011;16814;52.118;11.436;2023-03-23T08:37:32;2.28;;;1.60;;
29570;SDS011;16814;52.118;11.436;2023-03-23T08:39:57;3.03;;;1.40;;
29570;SDS011;16814;52.118;11.436;2023-03-23T08:42:23;4.88;;;1.50;;
29570;SDS011;16814;52.118;11.436;2023-03-23T08:44:50;2.28;;;1.40;;
29570;SDS011;16814;52.118;11.436;2023-03-23T08:47:16;3.10;;;1.60;;
29570;SDS011;16814;52.118;11.436;2023-03-23T08:49:42;4.45;;;1.50;;
29570;SDS011;16814;52.118;11.436;2023-03-23T08:52:10;2.50;;;1.40;;
29570;SDS011;16814;52.118;11.436;2023-03-23T08:54:36;1.80;;;1.50;;
29570;SDS011;16814;52.118;11.436;2023-03-23T08:57:03;5.18;;;1.67;;
29570;SDS011;16814;52.118;11.436;2023-03-23T08:59:29;4.73;;;1.43;;
29570;SDS011;16814;52.118;11.436;2023-03-23T09:01:55;3.38;;;1.88;;
29570;SDS011;16814;52.118;11.436;2023-03-23T09:04:21;3.20;;;1.52;;
29570;SDS011;16814;52.118;11.436;2023-03-23T09:06:47;3.33;;;1.50;;
29570;SDS011;16814;52.118;11.436;2023-03-23T09:09:12;4.53;;;1.50;;
29570;SDS011;16814;52.118;11.436;2023-03-23T09:11:38;4.63;;;1.50;;
29570;SDS011;16814;52.118;11.436;2023-03-23T09:14:05;5.43;;;1.60;;
29570;SDS011;16814;52.118;11.436;2023-03-23T09:16:32;3.87;;;1.50;;
29570;SDS011;16814;52.118;11.436;2023-03-23T09:18:58;3.78;;;1.48;;
29570;SDS011;16814;52.118;11.436;2023-03-23T09:21:25;4.85;;;1.60;;
29570;SDS011;16814;52.118;11.436;2023-03-23T09:23:51;6.13;;;1.65;;
29570;SDS011;16814;52.118;11.436;2023-03-23T09:26:17;4.00;;;1.50;;
29570;SDS011;16814;52.118;11.436;2023-03-23T09:28:43;6.30;;;1.77;;
29570;SDS011;16814;52.118;11.436;2023-03-23T09:31:10;3.55;;;1.45;;
29570;SDS011;16814;52.118;11.436;2023-03-23T09:33:37;2.58;;;1.60;;
29570;SDS011;16814;52.118;11.436;2023-03-23T09:36:03;5.55;;;1.48;;
29570;SDS011;16814;52.118;11.436;2023-03-23T09:38:29;7.35;;;1.55;;
29570;SDS011;16814;52.118;11.436;2023-03-23T09:43:43;3.95;;;1.50;;
29570;SDS011;16814;52.118;11.436;2023-03-23T09:49:05;3.90;;;1.48;;
29570;SDS011;16814;52.118;11.436;2023-03-23T09:55:00;4.05;;;1.45;;
29570;SDS011;16814;52.118;11.436;2023-03-23T09:59:54;6.90;;;1.50;;
29570;SDS011;16814;52.118;11.436;2023-03-23T10:02:30;5.53;;;1.40;;
29570;SDS011;16814;52.118;11.436;2023-03-23T10:07:58;6.15;;;1.90;;
29570;SDS011;16814;52.118;11.436;2023-03-23T10:10:35;4.03;;;1.77;;
29570;SDS011;16814;52.118;11.436;2023-03-23T10:13:23;6.65;;;1.77;;
29570;SDS011;16814;52.118;11.436;2023-03-23T10:15:55;2.38;;;1.30;;
29570;SDS011;16814;52.118;11.436;2023-03-23T10:18:25;3.17;;;1.63;;
29570;SDS011;16814;52.118;11.436;2023-03-23T10:21:01;2.80;;;1.52;;
29570;SDS011;16814;52.118;11.436;2023-03-23T10:23:46;6.07;;;1.92;;
29570;SDS011;16814;52.118;11.436;2023-03-23T10:31:58;4.53;;;1.70;;
29570;SDS011;16814;52.118;11.436;2023-03-23T10:34:31;4.37;;;1.70;;
29570;SDS011;16814;52.118;11.436;2023-03-23T10:37:10;4.22;;;1.50;;
29570;SDS011;16814;52.118;11.436;2023-03-23T10:39:44;6.93;;;1.73;;
29570;SDS011;16814;52.118;11.436;2023-03-23T10:42:21;5.37;;;1.77;;
29570;SDS011;16814;52.118;11.436;2023-03-23T10:44:52;3.53;;;1.70;;
29570;SDS011;16814;52.118;11.436;2023-03-23T10:47:18;4.40;;;1.70;;
29570;SDS011;16814;52.118;11.436;2023-03-23T10:49:48;9.07;;;1.90;;
29570;SDS011;16814;52.118;11.436;2023-03-23T10:52:25;5.55;;;1.83;;
29570;SDS011;16814;52.118;11.436;2023-03-23T10:55:04;4.47;;;2.00;;
29570;SDS011;16814;52.118;11.436;2023-03-23T10:57:34;4.32;;;1.65;;
29570;SDS011;16814;52.118;11.436;2023-03-23T11:00:05;4.15;;;1.52;;
29570;SDS011;16814;52.118;11.436;2023-03-23T11:02:45;5.40;;;1.65;;
29570;SDS011;16814;52.118;11.436;2023-03-23T11:05:35;5.30;;;1.80;;
29570;SDS011;16814;52.118;11.436;2023-03-23T11:08:58;6.47;;;1.88;;
29570;SDS011;16814;52.118;11.436;2023-03-23T11:11:21;6.18;;;1.80;;
29570;SDS011;16814;52.118;11.436;2023-03-23T11:14:01;24.30;;;2.50;;
29570;SDS011;16814;52.118;11.436;2023-03-23T11:16:41;12.48;;;2.25;;
29570;SDS011;16814;52.118;11.436;2023-03-23T11:19:13;10.63;;;1.90;;
29570;SDS011;16814;52.118;11.436;2023-03-23T11:21:40;4.97;;;1.60;;
29570;SDS011;16814;52.118;11.436;2023-03-23T11:24:13;5.60;;;1.77;;
29570;SDS011;16814;52.118;11.436;2023-03-23T11:26:39;6.00;;;1.80;;
29570;SDS011;16814;52.118;11.436;2023-03-23T11:29:13;7.95;;;1.70;;
29570;SDS011;16814;52.118;11.436;2023-03-23T11:31:45;6.03;;;2.00;;
29570;SDS011;16814;52.118;11.436;2023-03-23T11:34:16;5.15;;;2.00;;
29570;SDS011;16814;52.118;11.436;2023-03-23T11:36:47;7.43;;;2.03;;
29570;SDS011;16814;52.118;11.436;2023-03-23T11:39:20;6.07;;;2.00;;
29570;SDS011;16814;52.118;11.436;2023-03-23T11:41:48;6.55;;;1.83;;
29570;SDS011;16814;52.118;11.436;2023-03-23T11:44:14;12.17;;;1.80;;
29570;SDS011;16814;52.118;11.436;2023-03-23T11:46:49;9.10;;;1.77;;
29570;SDS011;16814;52.118;11.436;2023-03-23T11:49:35;5.63;;;1.80;;
29570;SDS011;16814;52.118;11.436;2023-03-23T11:52:11;6.65;;;1.90;;
29570;SDS011;16814;52.118;11.436;2023-03-23T11:54:46;9.40;;;1.80;;
29570;SDS011;16814;52.118;11.436;2023-03-23T11:57:17;5.90;;;2.10;;
29570;SDS011;16814;52.118;11.436;2023-03-23T11:59:43;6.30;;;1.63;;
29570;SDS011;16814;52.118;11.436;2023-03-23T12:04:53;5.97;;;1.65;;
29570;SDS011;16814;52.118;11.436;2023-03-23T12:07:47;8.82;;;1.80;;
29570;SDS011;16814;52.118;11.436;2023-03-23T12:16:23;4.18;;;1.60;;
29570;SDS011;16814;52.118;11.436;2023-03-23T12:22:02;4.50;;;1.70;;
29570;SDS011;16814;52.118;11.436;2023-03-23T12:27:06;4.50;;;1.70;;
29570;SDS011;16814;52.118;11.436;2023-03-23T12:32:21;6.47;;;1.55;;
29570;SDS011;16814;52.118;11.436;2023-03-23T12:41:07;5.57;;;1.60;;
29570;SDS011;16814;52.118;11.436;2023-03-23T12:52:10;7.75;;;1.55;;
29570;SDS011;16814;52.118;11.436;2023-03-23T12:55:00;6.50;;;1.95;;
29570;SDS011;16814;52.118;11.436;2023-03-23T12:57:38;3.27;;;1.47;;
29570;SDS011;16814;52.118;11.436;2023-03-23T13:00:28;6.27;;;1.50;;
29570;SDS011;16814;52.118;11.436;2023-03-23T13:06:17;6.50;;;1.67;;
29570;SDS011;16814;52.118;11.436;2023-03-23T13:11:32;6.20;;;1.70;;
29570;SDS011;16814;52.118;11.436;2023-03-23T13:14:03;6.50;;;1.52;;
29570;SDS011;16814;52.118;11.436;2023-03-23T13:16:53;8.10;;;1.95;;
29570;SDS011;16814;52.118;11.436;2023-03-23T13:19:30;6.78;;;1.70;;
29570;SDS011;16814;52.118;11.436;2023-03-23T13:22:26;7.82;;;1.67;;
29570;SDS011;16814;52.118;11.436;2023-03-23T13:25:08;6.22;;;1.60;;
29570;SDS011;16814;52.118;11.436;2023-03-23T13:27:40;7.70;;;1.70;;
29570;SDS011;16814;52.118;11.436;2023-03-23T13:30:17;7.10;;;1.70;;
29570;SDS011;16814;52.118;11.436;2023-03-23T13:32:49;5.50;;;1.45;;
29570;SDS011;16814;52.118;11.436;2023-03-23T13:35:16;6.50;;;2.00;;
29570;SDS011;16814;52.118;11.436;2023-03-23T13:37:46;6.65;;;1.90;;
29570;SDS011;16814;52.118;11.436;2023-03-23T13:43:00;5.80;;;1.50;;
29570;SDS011;16814;52.118;11.436;2023-03-23T13:48:02;10.02;;;1.67;;
29570;SDS011;16814;52.118;11.436;2023-03-23T13:50:54;6.05;;;1.85;;
29570;SDS011;16814;52.118;11.436;2023-03-23T13:53:23;5.57;;;1.77;;
29570;SDS011;16814;52.118;11.436;2023-03-23T14:01:39;5.85;;;1.80;;
29570;SDS011;16814;52.118;11.436;2023-03-23T14:04:07;5.50;;;1.40;;
29570;SDS011;16814;52.118;11.436;2023-03-23T14:06:40;7.25;;;1.80;;
29570;SDS011;16814;52.118;11.436;2023-03-23T14:12:00;8.18;;;1.60;;
29570;SDS011;16814;52.118;11.436;2023-03-23T14:14:34;6.00;;;1.90;;
29570;SDS011;16814;52.118;11.436;2023-03-23T14:19:46;7.32;;;1.77;;
29570;SDS011;16814;52.118;11.436;2023-03-23T14:22:24;6.00;;;1.50;;
29570;SDS011;16814;52.118;11.436;2023-03-23T14:24:52;5.27;;;1.47;;
29570;SDS011;16814;52.118;11.436;2023-03-23T14:27:26;5.43;;;1.58;;
29570;SDS011;16814;52.118;11.436;2023-03-23T14:30:05;5.53;;;1.70;;
29570;SDS011;16814;52.118;11.436;2023-03-23T14:32:33;6.90;;;2.10;;
29570;SDS011;16814;52.118;11.436;2023-03-23T14:35:04;6.07;;;1.65;;
29570;SDS011;16814;52.118;11.436;2023-03-23T14:37:32;5.78;;;1.52;;
29570;SDS011;16814;52.118;11.436;2023-03-23T14:40:00;4.18;;;1.23;;
29570;SDS011;16814;52.118;11.436;2023-03-23T14:42:34;6.95;;;1.77;;
29570;SDS011;16814;52.118;11.436;2023-03-23T14:45:01;5.38;;;1.38;;
29570;SDS011;16814;52.118;11.436;2023-03-23T14:47:40;8.95;;;1.88;;
29570;SDS011;16814;52.118;11.436;2023-03-23T14:50:29;4.72;;;1.58;;
29570;SDS011;16814;52.118;11.436;2023-03-23T14:53:19;4.78;;;1.38;;
29570;SDS011;16814;52.118;11.436;2023-03-23T14:55:55;5.03;;;1.40;;
29570;SDS011;16814;52.118;11.436;2023-03-23T14:58:27;7.32;;;1.65;;
29570;SDS011;16814;52.118;11.436;2023-03-23T15:01:04;5.55;;;1.63;;
29570;SDS011;16814;52.118;11.436;2023-03-23T15:03:35;7.53;;;1.85;;
29570;SDS011;16814;52.118;11.436;2023-03-23T15:06:17;4.82;;;1.50;;
29570;SDS011;16814;52.118;11.436;2023-03-23T15:08:46;3.38;;;1.27;;
29570;SDS011;16814;52.118;11.436;2023-03-23T15:13:43;5.20;;;1.55;;
29570;SDS011;16814;52.118;11.436;2023-03-23T15:16:21;5.85;;;1.50;;
29570;SDS011;16814;52.118;11.436;2023-03-23T15:19:13;2.97;;;1.20;;
29570;SDS011;16814;52.118;11.436;2023-03-23T15:21:53;3.63;;;1.30;;
29570;SDS011;16814;52.118;11.436;2023-03-23T15:24:32;4.70;;;1.35;;
29570;SDS011;16814;52.118;11.436;2023-03-23T15:27:24;3.40;;;1.30;;
29570;SDS011;16814;52.118;11.436;2023-03-23T15:29:59;3.50;;;1.23;;
29570;SDS011;16814;52.118;11.436;2023-03-23T15:32:38;2.55;;;1.10;;
29570;SDS011;16814;52.118;11.436;2023-03-23T15:35:12;3.53;;;1.15;;
29570;SDS011;16814;52.118;11.436;2023-03-23T15:37:46;2.63;;;1.17;;
29570;SDS011;16814;52.118;11.436;2023-03-23T15:40:22;6.75;;;1.70;;
29570;SDS011;16814;52.118;11.436;2023-03-23T15:42:49;5.10;;;1.60;;
29570;SDS011;16814;52.118;11.436;2023-03-23T15:45:29;9.57;;;1.70;;
29570;SDS011;16814;52.118;11.436;2023-03-23T15:47:57;6.63;;;1.52;;
29570;SDS011;16814;52.118;11.436;2023-03-23T15:52:54;8.60;;;1.98;;
29570;SDS011;16814;52.118;11.436;2023-03-23T15:55:34;6.70;;;1.83;;
29570;SDS011;16814;52.118;11.436;2023-03-23T15:58:04;7.78;;;2.33;;
29570;SDS011;16814;52.118;11.436;2023-03-23T16:00:35;4.18;;;1.83;;
29570;SDS011;16814;52.118;11.436;2023-03-23T16:03:03;5.38;;;1.95;;
29570;SDS011;16814;52.118;11.436;2023-03-23T16:05:30;7.47;;;2.05;;
29570;SDS011;16814;52.118;11.436;2023-03-23T16:07:57;4.35;;;1.92;;
29570;SDS011;16814;52.118;11.436;2023-03-23T16:10:24;5.77;;;1.80;;
29570;SDS011;16814;52.118;11.436;2023-03-23T16:12:51;5.57;;;1.77;;
29570;SDS011;16814;52.118;11.436;2023-03-23T16:15:17;8.75;;;2.20;;
29570;SDS011;16814;52.118;11.436;2023-03-23T16:17:43;6.50;;;2.30;;
29570;SDS011;16814;52.118;11.436;2023-03-23T16:20:17;7.18;;;2.10;;
29570;SDS011;16814;52.118;11.436;2023-03-23T16:22:45;6.90;;;1.98;;
29570;SDS011;16814;52.118;11.436;2023-03-23T16:25:11;5.10;;;1.80;;
29570;SDS011;16814;52.118;11.436;2023-03-23T16:27:38;6.93;;;2.40;;